createdAt,value
2022-11-22T00:00:32.886Z,5.50
2022-11-22T00:01:32.999Z,5.20
2022-11-22T00:02:32.919Z,5.20
2022-11-22T00:03:32.908Z,5.80
2022-11-22T00:04:32.861Z,5.50
2022-11-22T00:05:32.898Z,4.80
2022-11-22T00:06:32.841Z,5.00
2022-11-22T00:07:32.942Z,4.70
2022-11-22T00:08:32.861Z,4.10
2022-11-22T00:09:32.838Z,4.20
2022-11-22T00:10:32.826Z,3.80
2022-11-22T00:11:32.810Z,4.00
2022-11-22T00:12:32.808Z,3.80
2022-11-22T00:13:32.835Z,3.10
2022-11-22T00:14:32.785Z,3.40
2022-11-22T00:15:32.783Z,3.30
2022-11-22T00:16:32.832Z,3.20
2022-11-22T00:17:32.827Z,2.80
2022-11-22T00:18:32.782Z,3.10
2022-11-22T00:19:32.836Z,3.20
2022-11-22T00:20:32.745Z,3.40
2022-11-22T00:21:32.741Z,3.80
2022-11-22T00:22:32.797Z,3.30
2022-11-22T00:23:32.735Z,3.30
2022-11-22T00:24:32.744Z,3.20
2022-11-22T00:25:32.736Z,3.60
2022-11-22T00:26:32.706Z,3.00
2022-11-22T00:27:32.737Z,3.10
2022-11-22T00:28:32.696Z,3.20
2022-11-22T00:29:32.742Z,3.50
2022-11-22T00:30:32.756Z,2.90
2022-11-22T00:31:32.692Z,3.90
2022-11-22T00:32:32.697Z,3.10
2022-11-22T00:33:32.676Z,4.00
2022-11-22T00:34:32.691Z,3.70
2022-11-22T00:35:32.745Z,3.40
2022-11-22T00:36:32.660Z,3.40
2022-11-22T00:37:32.678Z,2.90
2022-11-22T00:38:32.746Z,3.90
2022-11-22T00:39:32.878Z,3.50
2022-11-22T00:40:32.643Z,3.40
2022-11-22T00:41:32.660Z,3.20
2022-11-22T00:42:32.662Z,3.20
2022-11-22T00:43:32.611Z,3.80
2022-11-22T00:44:32.616Z,3.80
2022-11-22T00:45:32.675Z,3.40
2022-11-22T00:46:32.612Z,3.60
2022-11-22T00:47:32.600Z,3.10
2022-11-22T00:48:32.646Z,3.40
2022-11-22T00:49:32.832Z,4.50
2022-11-22T00:50:32.613Z,3.70
2022-11-22T00:51:32.582Z,3.60
2022-11-22T00:52:32.602Z,3.00
2022-11-22T00:53:32.551Z,4.10
2022-11-22T00:54:32.556Z,3.30
2022-11-22T00:55:32.580Z,3.70
2022-11-22T00:56:32.563Z,3.70
2022-11-22T00:57:32.589Z,3.70
2022-11-22T00:58:32.549Z,3.80
2022-11-22T00:59:32.718Z,4.00
2022-11-22T01:00:32.587Z,3.70
2022-11-22T01:01:32.565Z,3.60
2022-11-22T01:02:32.567Z,3.50
2022-11-22T01:03:32.715Z,3.50
2022-11-22T01:04:32.502Z,3.10
2022-11-22T01:05:32.487Z,3.10
2022-11-22T01:06:32.468Z,3.00
2022-11-22T01:07:32.568Z,2.80
2022-11-22T01:08:32.453Z,2.90
2022-11-22T01:09:32.732Z,3.30
2022-11-22T01:10:32.596Z,3.00
2022-11-22T01:11:32.506Z,2.80
2022-11-22T01:12:32.451Z,2.90
2022-11-22T01:13:32.424Z,3.30
2022-11-22T01:14:32.517Z,2.80
2022-11-22T01:15:32.411Z,2.60
2022-11-22T01:16:32.446Z,3.20
2022-11-22T01:17:32.400Z,3.00
2022-11-22T01:18:32.379Z,3.30
2022-11-22T01:19:32.609Z,3.30
2022-11-22T01:20:32.402Z,4.20
2022-11-22T01:21:32.408Z,3.50
2022-11-22T01:22:32.391Z,4.00
2022-11-22T01:23:32.423Z,4.40
2022-11-22T01:24:32.587Z,4.70
2022-11-22T01:25:32.347Z,5.20
2022-11-22T01:26:32.385Z,6.50
2022-11-22T01:27:32.348Z,6.50
2022-11-22T01:28:32.361Z,7.50
2022-11-22T01:29:32.489Z,8.10
2022-11-22T01:30:32.328Z,8.30
2022-11-22T01:31:32.302Z,9.20
2022-11-22T01:32:32.360Z,9.70
2022-11-22T01:33:32.354Z,9.80
2022-11-22T01:34:32.345Z,10.00
2022-11-22T01:35:32.276Z,10.10
2022-11-22T01:36:32.266Z,9.40
2022-11-22T01:37:32.281Z,8.60
2022-11-22T01:38:32.300Z,8.80
2022-11-22T01:39:32.512Z,8.80
2022-11-22T01:40:32.267Z,9.10
2022-11-22T01:41:32.239Z,8.80
2022-11-22T01:42:32.272Z,9.60
2022-11-22T01:43:32.226Z,9.30
2022-11-22T01:44:32.271Z,8.60
2022-11-22T01:45:32.232Z,8.80
2022-11-22T01:46:32.229Z,8.50
2022-11-22T01:47:32.210Z,8.10
2022-11-22T01:48:32.212Z,8.10
2022-11-22T01:49:32.393Z,7.00
2022-11-22T01:50:32.204Z,7.00
2022-11-22T01:51:32.221Z,7.60
2022-11-22T01:52:32.191Z,7.40
2022-11-22T01:53:32.173Z,7.30
2022-11-22T01:54:32.165Z,6.80
2022-11-22T01:55:32.160Z,5.40
2022-11-22T01:56:32.194Z,4.80
2022-11-22T01:57:32.216Z,4.70
2022-11-22T01:58:32.127Z,4.40
2022-11-22T01:59:32.444Z,4.30
2022-11-22T02:00:32.129Z,3.90
2022-11-22T02:01:32.265Z,3.40
2022-11-22T02:02:32.135Z,4.20
2022-11-22T02:03:32.152Z,4.10
2022-11-22T02:04:32.110Z,4.20
2022-11-22T02:05:32.113Z,3.80
2022-11-22T02:06:32.146Z,3.60
2022-11-22T02:07:32.125Z,3.60
2022-11-22T02:08:32.075Z,3.50
2022-11-22T02:09:32.276Z,3.70
2022-11-22T02:10:32.058Z,3.20
2022-11-22T02:11:34.275Z,3.90
2022-11-22T02:12:33.083Z,3.50
2022-11-22T02:13:32.055Z,3.50
2022-11-22T02:14:32.039Z,4.00
2022-11-22T02:15:32.025Z,3.60
2022-11-22T02:16:32.129Z,3.90
2022-11-22T02:17:32.053Z,3.60
2022-11-22T02:18:32.019Z,3.80
2022-11-22T02:19:32.296Z,4.30
2022-11-22T02:20:32.009Z,3.50
2022-11-22T02:21:32.007Z,3.80
2022-11-22T02:22:32.035Z,3.60
2022-11-22T02:23:32.003Z,4.30
2022-11-22T02:24:31.980Z,3.70
2022-11-22T02:25:31.970Z,3.70
2022-11-22T02:26:32.001Z,3.80
2022-11-22T02:27:31.980Z,3.90
2022-11-22T02:28:31.992Z,4.30
2022-11-22T02:29:32.266Z,3.70
2022-11-22T02:30:31.959Z,4.80
2022-11-22T02:31:31.969Z,4.50
2022-11-22T02:32:31.920Z,4.50
2022-11-22T02:33:31.975Z,4.20
2022-11-22T02:34:31.956Z,4.60
2022-11-22T02:35:31.893Z,4.30
2022-11-22T02:36:31.894Z,4.40
2022-11-22T02:37:31.866Z,5.20
2022-11-22T02:38:31.910Z,4.20
2022-11-22T02:39:32.147Z,4.70
2022-11-22T02:40:31.863Z,4.70
2022-11-22T02:41:31.859Z,5.00
2022-11-22T02:42:31.930Z,4.30
2022-11-22T02:43:31.869Z,5.10
2022-11-22T02:44:31.876Z,4.70
2022-11-22T02:45:31.845Z,4.70
2022-11-22T02:46:31.830Z,4.80
2022-11-22T02:47:31.828Z,4.70
2022-11-22T02:48:31.844Z,5.00
2022-11-22T02:49:32.383Z,5.40
2022-11-22T02:50:31.836Z,5.20
2022-11-22T02:51:31.797Z,5.50
2022-11-22T02:52:31.794Z,5.00
2022-11-22T02:53:31.802Z,4.90
2022-11-22T02:54:31.782Z,5.30
2022-11-22T02:55:31.805Z,5.10
2022-11-22T02:56:31.766Z,4.70
2022-11-22T02:57:31.763Z,5.00
2022-11-22T02:58:31.759Z,5.00
2022-11-22T02:59:32.038Z,5.50
2022-11-22T03:00:31.765Z,5.30
2022-11-22T03:01:31.798Z,5.00
2022-11-22T03:02:31.736Z,5.10
2022-11-22T03:03:31.733Z,5.30
2022-11-22T03:04:31.700Z,5.30
2022-11-22T03:05:31.733Z,5.70
2022-11-22T03:06:31.734Z,5.50
2022-11-22T03:07:31.752Z,5.30
2022-11-22T03:08:31.693Z,5.50
2022-11-22T03:09:31.824Z,5.60
2022-11-22T03:10:31.672Z,5.30
2022-11-22T03:11:31.704Z,5.10
2022-11-22T03:12:31.690Z,5.70
2022-11-22T03:13:31.715Z,5.50
2022-11-22T03:14:31.658Z,5.20
2022-11-22T03:15:31.659Z,6.10
2022-11-22T03:16:31.648Z,6.20
2022-11-22T03:17:31.675Z,5.80
2022-11-22T03:18:31.682Z,5.80
2022-11-22T03:19:31.996Z,5.90
2022-11-22T03:20:31.699Z,5.90
2022-11-22T03:21:31.625Z,6.50
2022-11-22T03:22:31.600Z,6.30
2022-11-22T03:23:31.660Z,5.80
2022-11-22T03:24:31.653Z,6.50
2022-11-22T03:25:31.598Z,6.40
2022-11-22T03:26:31.591Z,6.90
2022-11-22T03:27:31.593Z,6.70
2022-11-22T03:28:31.644Z,7.00
2022-11-22T03:29:32.064Z,6.60
2022-11-22T03:30:31.566Z,6.20
2022-11-22T03:31:31.584Z,6.80
2022-11-22T03:32:31.636Z,6.90
2022-11-22T03:33:31.601Z,7.00
2022-11-22T03:34:31.561Z,6.80
2022-11-22T03:35:31.527Z,7.20
2022-11-22T03:36:31.534Z,7.10
2022-11-22T03:37:31.510Z,6.90
2022-11-22T03:38:31.528Z,7.30
2022-11-22T03:39:31.659Z,7.20
2022-11-22T03:40:31.523Z,7.30
2022-11-22T03:41:31.483Z,7.30
2022-11-22T03:42:31.499Z,7.50
2022-11-22T03:43:31.494Z,7.70
2022-11-22T03:44:31.531Z,8.10
2022-11-22T03:45:31.604Z,8.30
2022-11-22T03:46:31.454Z,8.30
2022-11-22T03:47:31.466Z,7.80
2022-11-22T03:48:31.526Z,7.90
2022-11-22T03:49:31.788Z,8.20
2022-11-22T03:50:31.483Z,8.30
2022-11-22T03:51:31.496Z,9.10
2022-11-22T03:52:31.473Z,8.30
2022-11-22T03:53:31.426Z,8.60
2022-11-22T03:54:31.428Z,9.60
2022-11-22T03:55:31.402Z,9.40
2022-11-22T03:56:31.424Z,9.40
2022-11-22T03:57:31.403Z,9.90
2022-11-22T03:58:31.382Z,9.90
2022-11-22T03:59:31.654Z,10.30
2022-11-22T04:00:31.379Z,9.70
2022-11-22T04:01:31.436Z,9.80
2022-11-22T04:02:31.365Z,9.60
2022-11-22T04:03:31.363Z,10.00
2022-11-22T04:04:31.341Z,9.90
2022-11-22T04:05:31.366Z,10.50
2022-11-22T04:06:31.387Z,10.40
2022-11-22T04:07:31.339Z,11.10
2022-11-22T04:08:31.351Z,10.80
2022-11-22T04:09:31.622Z,10.20
2022-11-22T04:10:31.301Z,10.80
2022-11-22T04:11:31.348Z,10.40
2022-11-22T04:12:31.360Z,11.10
2022-11-22T04:13:31.278Z,11.10
2022-11-22T04:14:31.289Z,11.00
2022-11-22T04:15:31.360Z,11.90
2022-11-22T04:16:31.275Z,11.30
2022-11-22T04:17:31.343Z,11.70
2022-11-22T04:18:31.243Z,11.50
2022-11-22T04:19:31.480Z,12.50
2022-11-22T04:20:31.238Z,12.40
2022-11-22T04:21:31.230Z,12.50
2022-11-22T04:22:31.233Z,11.50
2022-11-22T04:23:34.300Z,12.10
2022-11-22T04:24:32.224Z,12.30
2022-11-22T04:25:31.223Z,12.70
2022-11-22T04:26:31.207Z,12.30
2022-11-22T04:27:31.202Z,12.60
2022-11-22T04:29:01.418Z,12.30
2022-11-22T04:29:33.398Z,12.60
2022-11-22T04:30:31.224Z,11.60
2022-11-22T04:31:31.185Z,12.50
2022-11-22T04:32:31.168Z,11.80
2022-11-22T04:33:31.223Z,12.20
2022-11-22T04:34:31.199Z,13.10
2022-11-22T04:35:31.160Z,12.50
2022-11-22T04:36:31.164Z,12.30
2022-11-22T04:37:31.151Z,12.30
2022-11-22T04:38:31.144Z,12.40
2022-11-22T04:39:31.569Z,13.00
2022-11-22T04:40:31.128Z,12.30
2022-11-22T04:41:31.166Z,12.30
2022-11-22T04:42:31.164Z,12.30
2022-11-22T04:43:31.108Z,12.30
2022-11-22T04:44:31.095Z,12.10
2022-11-22T04:45:31.147Z,11.90
2022-11-22T04:46:31.075Z,12.00
2022-11-22T04:47:31.077Z,12.10
2022-11-22T04:48:31.057Z,11.90
2022-11-22T04:49:31.390Z,12.50
2022-11-22T04:50:31.085Z,12.40
2022-11-22T04:51:31.059Z,12.10
2022-11-22T04:52:31.084Z,12.00
2022-11-22T04:53:31.041Z,11.80
2022-11-22T04:54:31.052Z,11.90
2022-11-22T04:55:31.070Z,11.40
2022-11-22T04:56:31.008Z,11.90
2022-11-22T04:57:32.003Z,11.50
2022-11-22T04:58:31.002Z,11.80
2022-11-22T04:59:31.291Z,12.80
2022-11-22T05:00:31.034Z,12.00
2022-11-22T05:01:31.060Z,12.50
2022-11-22T05:02:30.982Z,12.30
2022-11-22T05:03:30.957Z,11.90
2022-11-22T05:04:30.963Z,13.40
2022-11-22T05:05:30.951Z,12.20
2022-11-22T05:06:30.982Z,12.20
2022-11-22T05:07:31.026Z,12.90
2022-11-22T05:08:30.948Z,12.00
2022-11-22T05:09:31.159Z,12.10
2022-11-22T05:10:30.928Z,12.30
2022-11-22T05:11:30.922Z,11.60
2022-11-22T05:12:30.948Z,11.40
2022-11-22T05:13:30.919Z,12.30
2022-11-22T05:14:30.905Z,12.40
2022-11-22T05:15:30.941Z,12.40
2022-11-22T05:16:30.918Z,11.40
2022-11-22T05:17:30.977Z,12.20
2022-11-22T05:18:30.889Z,12.80
2022-11-22T05:19:31.111Z,12.00
2022-11-22T05:20:30.886Z,11.60
2022-11-22T05:21:30.858Z,11.80
2022-11-22T05:22:30.880Z,12.30
2022-11-22T05:23:30.874Z,12.10
2022-11-22T05:24:30.845Z,11.60
2022-11-22T05:25:30.831Z,12.00
2022-11-22T05:26:30.828Z,12.10
2022-11-22T05:27:30.825Z,11.50
2022-11-22T05:28:30.885Z,10.80
2022-11-22T05:29:31.014Z,12.20
2022-11-22T05:30:30.846Z,12.20
2022-11-22T05:31:30.903Z,11.50
2022-11-22T05:32:30.802Z,10.80
2022-11-22T05:33:30.780Z,10.40
2022-11-22T05:34:30.832Z,10.50
2022-11-22T05:35:30.752Z,10.70
2022-11-22T05:36:31.762Z,11.20
2022-11-22T05:37:30.783Z,10.60
2022-11-22T05:38:30.741Z,11.00
2022-11-22T05:39:31.004Z,10.90
2022-11-22T05:40:30.785Z,10.20
2022-11-22T05:41:30.737Z,9.60
2022-11-22T05:42:30.736Z,10.10
2022-11-22T05:43:30.717Z,9.40
2022-11-22T05:44:30.779Z,9.10
2022-11-22T05:45:30.702Z,9.70
2022-11-22T05:46:30.711Z,10.00
2022-11-22T05:47:30.699Z,9.40
2022-11-22T05:48:30.700Z,9.10
2022-11-22T05:49:31.023Z,9.60
2022-11-22T05:50:30.696Z,10.20
2022-11-22T05:51:34.647Z,8.90
2022-11-22T05:52:31.661Z,9.00
2022-11-22T05:53:30.650Z,8.80
2022-11-22T05:54:30.647Z,8.80
2022-11-22T05:55:30.644Z,9.30
2022-11-22T05:56:30.665Z,9.40
2022-11-22T05:57:30.708Z,9.30
2022-11-22T05:58:30.636Z,9.20
2022-11-22T05:59:31.020Z,8.70
2022-11-22T06:00:30.639Z,9.40
2022-11-22T06:01:30.634Z,8.50
2022-11-22T06:02:30.715Z,8.90
2022-11-22T06:03:30.655Z,8.60
2022-11-22T06:04:30.592Z,8.60
2022-11-22T06:05:30.595Z,9.30
2022-11-22T06:06:30.593Z,8.90
2022-11-22T06:07:30.666Z,9.40
2022-11-22T06:08:30.588Z,9.00
2022-11-22T06:09:30.843Z,8.80
2022-11-22T06:10:30.623Z,9.10
2022-11-22T06:11:30.552Z,9.40
2022-11-22T06:12:30.595Z,8.60
2022-11-22T06:13:30.568Z,9.40
2022-11-22T06:14:30.529Z,9.00
2022-11-22T06:15:30.519Z,8.70
2022-11-22T06:16:30.521Z,8.90
2022-11-22T06:17:30.503Z,8.70
2022-11-22T06:18:30.563Z,8.50
2022-11-22T06:19:30.711Z,9.50
2022-11-22T06:20:30.494Z,9.20
2022-11-22T06:21:30.493Z,10.10
2022-11-22T06:22:30.466Z,8.90
2022-11-22T06:23:30.523Z,9.00
2022-11-22T06:24:30.472Z,8.60
2022-11-22T06:25:30.577Z,9.20
2022-11-22T06:26:33.529Z,9.10
2022-11-22T06:27:31.448Z,9.30
2022-11-22T06:28:30.441Z,9.00
2022-11-22T06:29:30.850Z,9.20
2022-11-22T06:30:30.440Z,9.50
2022-11-22T06:31:30.430Z,9.40
2022-11-22T06:32:30.423Z,9.20
2022-11-22T06:33:30.411Z,9.30
2022-11-22T06:34:30.501Z,9.60
2022-11-22T06:35:30.450Z,9.30
2022-11-22T06:36:30.434Z,10.30
2022-11-22T06:37:30.403Z,10.40
2022-11-22T06:38:30.485Z,10.40
2022-11-22T06:39:30.614Z,10.30
2022-11-22T06:40:30.401Z,10.30
2022-11-22T06:41:30.377Z,11.10
2022-11-22T06:42:30.366Z,10.50
2022-11-22T06:43:30.363Z,11.00
2022-11-22T06:44:30.411Z,11.00
2022-11-22T06:45:30.350Z,11.00
2022-11-22T06:46:30.403Z,11.50
2022-11-22T06:47:30.384Z,11.00
2022-11-22T06:48:30.412Z,11.00
2022-11-22T06:49:30.648Z,11.50
2022-11-22T06:50:30.334Z,11.70
2022-11-22T06:51:30.344Z,11.80
2022-11-22T06:52:30.411Z,12.00
2022-11-22T06:53:46.220Z,12.20
2022-11-22T06:54:32.301Z,11.90
2022-11-22T06:55:49.729Z,12.60
2022-11-22T06:56:32.305Z,12.40
2022-11-22T06:57:30.373Z,13.20
2022-11-22T06:58:30.307Z,13.50
2022-11-22T06:59:30.563Z,13.60
2022-11-22T07:00:30.283Z,14.60
2022-11-22T07:01:30.321Z,13.80
2022-11-22T07:02:30.330Z,13.80
2022-11-22T07:03:30.395Z,13.20
2022-11-22T07:04:30.300Z,13.40
2022-11-22T07:05:30.222Z,13.80
2022-11-22T07:06:30.231Z,14.30
2022-11-22T07:07:30.313Z,13.80
2022-11-22T07:08:30.326Z,14.30
2022-11-22T07:09:30.441Z,14.60
2022-11-22T07:10:30.321Z,15.90
2022-11-22T07:11:30.251Z,14.40
2022-11-22T07:12:30.205Z,15.80
2022-11-22T07:13:30.253Z,16.50
2022-11-22T07:14:30.245Z,16.00
2022-11-22T07:15:30.211Z,17.30
2022-11-22T07:16:30.166Z,16.70
2022-11-22T07:17:30.165Z,15.40
2022-11-22T07:18:30.172Z,16.00
2022-11-22T07:19:30.574Z,16.20
2022-11-22T07:20:30.217Z,16.10
2022-11-22T07:21:30.130Z,16.20
2022-11-22T07:22:30.179Z,17.90
2022-11-22T07:23:30.131Z,18.20
2022-11-22T07:24:30.127Z,15.90
2022-11-22T07:25:30.157Z,17.50
2022-11-22T07:26:30.120Z,17.70
2022-11-22T07:27:30.144Z,18.40
2022-11-22T07:28:30.111Z,18.30
2022-11-22T07:29:30.374Z,19.00
2022-11-22T07:30:30.098Z,18.20
2022-11-22T07:31:30.091Z,19.50
2022-11-22T07:32:30.110Z,19.50
2022-11-22T07:33:30.069Z,18.70
2022-11-22T07:34:30.063Z,19.10
2022-11-22T07:35:30.074Z,19.90
2022-11-22T07:36:30.055Z,19.80
2022-11-22T07:37:30.068Z,19.10
2022-11-22T07:38:30.048Z,19.40
2022-11-22T07:39:30.311Z,18.90
2022-11-22T07:40:30.017Z,18.60
2022-11-22T07:41:30.010Z,19.10
2022-11-22T07:42:30.069Z,18.80
2022-11-22T07:43:30.017Z,18.40
2022-11-22T07:44:30.006Z,19.60
2022-11-22T07:45:30.011Z,18.90
2022-11-22T07:46:30.012Z,19.20
2022-11-22T07:47:30.013Z,17.80
2022-11-22T07:48:30.015Z,18.00
2022-11-22T07:49:30.302Z,19.50
2022-11-22T07:50:29.957Z,19.30
2022-11-22T07:51:29.940Z,19.20
2022-11-22T07:52:29.957Z,19.00
2022-11-22T07:53:29.950Z,19.30
2022-11-22T07:54:30.031Z,20.10
2022-11-22T07:55:29.970Z,20.20
2022-11-22T07:56:29.965Z,19.90
2022-11-22T07:57:29.921Z,21.00
2022-11-22T07:58:29.925Z,19.70
2022-11-22T07:59:30.200Z,20.90
2022-11-22T08:00:29.931Z,21.60
2022-11-22T08:01:30.020Z,21.60
2022-11-22T08:02:29.895Z,21.80
2022-11-22T08:03:29.888Z,22.30
2022-11-22T08:04:29.894Z,22.00
2022-11-22T08:05:29.893Z,21.40
2022-11-22T08:06:29.887Z,21.40
2022-11-22T08:07:30.018Z,21.30
2022-11-22T08:08:29.854Z,21.70
2022-11-22T08:09:30.071Z,21.20
2022-11-22T08:10:29.864Z,22.00
2022-11-22T08:11:30.014Z,22.00
2022-11-22T08:12:29.840Z,22.30
2022-11-22T08:13:29.846Z,20.90
2022-11-22T08:14:29.814Z,22.50
2022-11-22T08:15:29.814Z,21.80
2022-11-22T08:16:29.835Z,21.90
2022-11-22T08:17:29.878Z,21.00
2022-11-22T08:18:29.795Z,21.30
2022-11-22T08:19:30.101Z,20.50
2022-11-22T08:20:29.805Z,21.00
2022-11-22T08:21:29.776Z,20.80
2022-11-22T08:22:29.788Z,20.90
2022-11-22T08:23:29.873Z,19.90
2022-11-22T08:24:29.769Z,20.70
2022-11-22T08:25:29.771Z,20.30
2022-11-22T08:26:29.754Z,20.30
2022-11-22T08:27:29.744Z,21.50
2022-11-22T08:28:29.773Z,20.70
2022-11-22T08:29:30.019Z,19.70
2022-11-22T08:30:29.721Z,19.60
2022-11-22T08:31:29.721Z,19.30
2022-11-22T08:32:29.720Z,18.60
2022-11-22T08:33:29.712Z,17.60
2022-11-22T08:34:29.742Z,16.60
2022-11-22T08:35:29.713Z,16.50
2022-11-22T08:36:29.685Z,16.30
2022-11-22T08:37:29.716Z,16.70
2022-11-22T08:38:29.676Z,16.30
2022-11-22T08:39:29.986Z,15.90
2022-11-22T08:40:29.670Z,16.90
2022-11-22T08:41:29.699Z,17.70
2022-11-22T08:42:29.668Z,17.40
2022-11-22T08:43:29.644Z,16.90
2022-11-22T08:44:29.654Z,17.10
2022-11-22T08:45:29.666Z,16.90
2022-11-22T08:46:29.650Z,17.10
2022-11-22T08:47:29.622Z,16.50
2022-11-22T08:48:29.620Z,16.40
2022-11-22T08:49:30.017Z,16.00
2022-11-22T08:50:29.626Z,15.30
2022-11-22T08:51:29.616Z,15.00
2022-11-22T08:52:29.602Z,15.50
2022-11-22T08:53:29.640Z,14.70
2022-11-22T08:54:33.541Z,14.10
2022-11-22T08:55:30.683Z,15.80
2022-11-22T08:56:29.605Z,14.70
2022-11-22T08:57:29.595Z,12.90
2022-11-22T08:58:29.563Z,12.50
2022-11-22T08:59:30.025Z,11.30
2022-11-22T09:00:33.389Z,12.00
2022-11-22T09:01:30.572Z,12.20
2022-11-22T09:02:29.579Z,12.40
2022-11-22T09:03:29.581Z,11.80
2022-11-22T09:04:29.546Z,10.70
2022-11-22T09:05:29.545Z,10.50
2022-11-22T09:08:34.389Z,10.60
2022-11-22T09:09:37.461Z,10.80
2022-11-22T09:10:31.512Z,9.70
2022-11-22T09:11:29.547Z,10.00
2022-11-22T09:12:29.495Z,9.80
2022-11-22T09:13:29.518Z,10.00
2022-11-22T09:14:29.475Z,8.90
2022-11-22T09:15:29.475Z,8.70
2022-11-22T09:16:29.454Z,9.10
2022-11-22T09:17:29.467Z,8.60
2022-11-22T09:18:29.479Z,8.30
2022-11-22T09:19:29.964Z,8.60
2022-11-22T09:20:29.433Z,9.00
2022-11-22T09:21:29.459Z,8.60
2022-11-22T09:22:29.432Z,8.90
2022-11-22T09:23:29.444Z,8.60
2022-11-22T09:24:29.465Z,8.10
2022-11-22T09:25:29.465Z,8.30
2022-11-22T09:26:29.428Z,7.90
2022-11-22T09:27:29.502Z,10.10
2022-11-22T09:28:29.414Z,8.00
2022-11-22T09:29:29.767Z,9.00
2022-11-22T09:30:29.435Z,8.20
2022-11-22T09:31:29.391Z,7.40
2022-11-22T09:32:33.494Z,8.10
2022-11-22T09:33:30.410Z,7.80
2022-11-22T09:34:29.383Z,7.90
2022-11-22T09:35:29.460Z,7.50
2022-11-22T09:36:29.350Z,7.70
2022-11-22T09:37:29.386Z,7.10
2022-11-22T09:38:29.361Z,7.30
2022-11-22T09:39:30.493Z,7.60
2022-11-22T09:40:29.390Z,6.50
2022-11-22T09:41:29.362Z,6.70
2022-11-22T09:42:29.367Z,6.70
2022-11-22T09:43:29.418Z,6.10
2022-11-22T09:44:29.334Z,6.00
2022-11-22T09:45:29.352Z,5.60
2022-11-22T09:46:29.355Z,6.00
2022-11-22T09:47:29.354Z,5.80
2022-11-22T09:48:29.290Z,5.90
2022-11-22T09:49:29.745Z,5.40
2022-11-22T09:50:29.299Z,5.60
2022-11-22T09:51:29.375Z,5.80
2022-11-22T09:52:29.349Z,5.70
2022-11-22T09:53:29.299Z,5.40
2022-11-22T09:54:29.271Z,5.40
2022-11-22T09:55:29.289Z,5.10
2022-11-22T09:56:29.270Z,5.40
2022-11-22T09:57:29.288Z,5.50
2022-11-22T09:58:29.269Z,5.50
2022-11-22T09:59:29.819Z,5.50
2022-11-22T10:00:29.258Z,5.20
2022-11-22T10:01:29.379Z,5.50
2022-11-22T10:02:29.252Z,6.00
2022-11-22T10:03:29.255Z,5.70
2022-11-22T10:04:29.238Z,4.80
2022-11-22T10:05:29.216Z,5.10
2022-11-22T10:06:29.195Z,5.40
2022-11-22T10:07:29.439Z,5.30
2022-11-22T10:08:29.199Z,5.40
2022-11-22T10:09:29.518Z,4.90
2022-11-22T10:10:29.211Z,4.90
2022-11-22T10:11:33.502Z,5.30
2022-11-22T10:12:31.215Z,4.90
2022-11-22T10:13:29.187Z,4.70
2022-11-22T10:14:29.192Z,4.50
2022-11-22T10:15:29.238Z,5.00
2022-11-22T10:16:29.148Z,4.60
2022-11-22T10:17:29.170Z,4.90
2022-11-22T10:18:29.180Z,4.80
2022-11-22T10:19:29.379Z,4.40
2022-11-22T10:20:29.184Z,5.00
2022-11-22T10:21:29.129Z,4.80
2022-11-22T10:22:29.147Z,4.60
2022-11-22T10:23:29.142Z,4.80
2022-11-22T10:24:29.191Z,4.20
2022-11-22T10:25:29.158Z,3.90
2022-11-22T10:26:29.122Z,3.90
2022-11-22T10:27:29.126Z,4.60
2022-11-22T10:28:29.107Z,4.60
2022-11-22T10:29:29.449Z,3.50
2022-11-22T10:30:29.139Z,4.20
2022-11-22T10:31:29.151Z,4.50
2022-11-22T10:32:29.096Z,4.30
2022-11-22T10:33:29.096Z,3.80
2022-11-22T10:34:29.149Z,4.40
2022-11-22T10:35:29.067Z,3.90
2022-11-22T10:36:29.090Z,3.80
2022-11-22T10:37:29.077Z,4.50
2022-11-22T10:38:29.082Z,3.60
2022-11-22T10:39:34.191Z,3.70
2022-11-22T10:40:31.060Z,3.70
2022-11-22T10:41:29.087Z,3.80
2022-11-22T10:42:29.034Z,4.10
2022-11-22T10:43:29.103Z,3.90
2022-11-22T10:44:29.022Z,3.90
2022-11-22T10:45:29.045Z,3.70
2022-11-22T10:46:29.026Z,4.60
2022-11-22T10:47:34.110Z,3.50
2022-11-22T10:48:31.045Z,4.00
2022-11-22T10:49:29.405Z,3.70
2022-11-22T10:50:28.996Z,3.80
2022-11-22T10:51:29.081Z,3.60
2022-11-22T10:52:29.015Z,3.90
2022-11-22T10:53:28.990Z,4.00
2022-11-22T10:54:30.524Z,4.70
2022-11-22T10:55:29.175Z,3.50
2022-11-22T10:56:29.104Z,3.50
2022-11-22T10:57:29.061Z,3.80
2022-11-22T10:58:28.971Z,3.20
2022-11-22T10:59:29.318Z,3.40
2022-11-22T11:00:29.994Z,3.40
2022-11-22T11:01:29.044Z,3.40
2022-11-22T11:02:28.936Z,3.70
2022-11-22T11:03:28.942Z,4.40
2022-11-22T11:04:28.956Z,3.70
2022-11-22T11:05:29.013Z,3.20
2022-11-22T11:06:49.958Z,3.50
2022-11-22T11:07:30.964Z,3.50
2022-11-22T11:08:54.169Z,3.60
2022-11-22T11:10:34.567Z,3.60
2022-11-22T11:11:29.918Z,3.60
2022-11-22T11:12:28.897Z,3.10
2022-11-22T11:13:28.907Z,3.80
2022-11-22T11:14:29.366Z,3.40
2022-11-22T11:15:28.921Z,4.30
2022-11-22T11:16:28.998Z,3.20
2022-11-22T11:17:28.893Z,3.10
2022-11-22T11:18:28.875Z,3.70
2022-11-22T11:19:28.989Z,4.10
2022-11-22T11:20:28.852Z,3.30
2022-11-22T11:21:28.864Z,4.10
2022-11-22T11:22:58.651Z,3.70
2022-11-22T11:23:30.862Z,3.40
2022-11-22T11:24:29.182Z,3.30
2022-11-22T11:25:28.913Z,3.50
2022-11-22T11:26:28.857Z,3.70
2022-11-22T11:27:28.905Z,3.40
2022-11-22T11:28:28.837Z,3.30
2022-11-22T11:29:31.072Z,3.80
2022-11-22T11:30:29.840Z,3.50
2022-11-22T11:31:28.849Z,3.80
2022-11-22T11:32:28.818Z,4.40
2022-11-22T11:33:28.830Z,3.40
2022-11-22T11:34:29.091Z,3.30
2022-11-22T11:35:28.881Z,4.10
2022-11-22T11:36:28.817Z,3.60
2022-11-22T11:37:28.788Z,3.90
2022-11-22T11:38:28.790Z,3.80
2022-11-22T11:39:29.056Z,3.40
2022-11-22T11:40:28.780Z,3.40
2022-11-22T11:41:28.810Z,3.40
2022-11-22T11:42:28.785Z,3.40
2022-11-22T11:43:28.780Z,3.40
2022-11-22T11:44:29.122Z,3.80
2022-11-22T11:45:28.786Z,3.60
2022-11-22T11:46:28.795Z,3.50
2022-11-22T11:47:28.745Z,3.20
2022-11-22T11:48:28.765Z,3.80
2022-11-22T11:49:29.028Z,3.10
2022-11-22T11:50:28.737Z,2.60
2022-11-22T11:51:28.720Z,3.10
2022-11-22T11:52:28.713Z,2.80
2022-11-22T11:53:28.757Z,3.60
2022-11-22T11:54:28.715Z,3.40
2022-11-22T11:55:28.706Z,3.00
2022-11-22T11:56:28.711Z,2.90
2022-11-22T11:57:28.765Z,3.50
2022-11-22T11:58:28.798Z,3.10
2022-11-22T11:59:28.758Z,3.20
2022-11-22T12:00:28.683Z,3.40
2022-11-22T12:01:28.670Z,3.40
2022-11-22T12:02:29.205Z,3.10
2022-11-22T12:03:28.711Z,3.20
2022-11-22T12:04:29.168Z,3.00
2022-11-22T12:05:28.666Z,2.50
2022-11-22T12:06:28.685Z,2.50
2022-11-22T12:07:28.877Z,3.00
2022-11-22T12:08:28.638Z,3.10
2022-11-22T12:09:29.705Z,3.20
2022-11-22T12:10:28.724Z,3.00
2022-11-22T12:11:28.627Z,2.50
2022-11-22T12:12:28.627Z,3.20
2022-11-22T12:13:28.685Z,3.00
2022-11-22T12:14:42.961Z,4.20
2022-11-22T12:15:30.618Z,3.00
2022-11-22T12:16:28.618Z,2.30
2022-11-22T12:17:28.601Z,2.90
2022-11-22T12:18:28.659Z,2.90
2022-11-22T12:19:28.685Z,2.60
2022-11-22T12:20:28.613Z,2.80
2022-11-22T12:21:28.630Z,3.00
2022-11-22T12:22:48.767Z,3.30
2022-11-22T12:23:30.644Z,2.80
2022-11-22T12:24:52.235Z,2.40
2022-11-22T12:25:33.184Z,2.50
2022-11-22T12:26:29.593Z,3.30
2022-11-22T12:27:28.576Z,2.60
2022-11-22T12:28:28.569Z,2.40
2022-11-22T12:29:28.543Z,2.30
2022-11-22T12:30:28.543Z,2.70
2022-11-22T12:31:28.554Z,2.50
2022-11-22T12:32:28.536Z,2.80
2022-11-22T12:33:28.562Z,3.30
2022-11-22T12:34:28.922Z,2.80
2022-11-22T12:35:28.504Z,3.00
2022-11-22T12:36:32.669Z,2.80
2022-11-22T12:37:29.530Z,3.10
2022-11-22T12:38:28.645Z,2.40
2022-11-22T12:39:28.556Z,2.80
2022-11-22T12:40:28.483Z,2.60
2022-11-22T12:41:28.485Z,2.70
2022-11-22T12:42:28.525Z,3.30
2022-11-22T12:43:28.505Z,2.90
2022-11-22T12:44:28.879Z,3.00
2022-11-22T12:45:28.462Z,3.30
2022-11-22T12:46:28.499Z,2.70
2022-11-22T12:47:28.467Z,2.80
2022-11-22T12:48:28.785Z,3.10
2022-11-22T12:49:28.448Z,3.30
2022-11-22T12:50:28.484Z,3.10
2022-11-22T12:51:28.450Z,2.50
2022-11-22T12:52:28.412Z,2.20
2022-11-22T12:53:28.426Z,2.90
2022-11-22T12:54:28.852Z,2.90
2022-11-22T12:55:28.482Z,2.70
2022-11-22T12:56:33.072Z,2.60
2022-11-22T12:57:30.398Z,2.70
2022-11-22T12:58:28.465Z,2.80
2022-11-22T12:59:28.451Z,3.30
2022-11-22T13:00:28.397Z,2.70
2022-11-22T13:01:28.462Z,2.90
2022-11-22T13:02:28.373Z,2.90
2022-11-22T13:03:28.397Z,3.00
2022-11-22T13:04:28.865Z,2.50
2022-11-22T13:05:28.411Z,2.80
2022-11-22T13:06:28.366Z,2.70
2022-11-22T13:07:28.424Z,2.30
2022-11-22T13:08:28.350Z,3.20
2022-11-22T13:09:28.372Z,2.80
2022-11-22T13:10:28.385Z,3.10
2022-11-22T13:11:28.421Z,3.10
2022-11-22T13:12:28.368Z,2.70